sensor_id;sensor_type;location;lat;lon;timestamp;P1;durP1;ratioP1;P2;durP2;ratioP2
2257;SDS011;1136;51.574;7.706;2023-02-15T00:01:55;17.47;;;12.83;;
2257;SDS011;1136;51.574;7.706;2023-02-15T00:04:23;15.70;;;12.90;;
2257;SDS011;1136;51.574;7.706;2023-02-15T00:06:50;18.23;;;14.60;;
2257;SDS011;1136;51.574;7.706;2023-02-15T00:09:17;20.80;;;14.47;;
2257;SDS011;1136;51.574;7.706;2023-02-15T00:11:44;20.67;;;14.03;;
2257;SDS011;1136;51.574;7.706;2023-02-15T00:14:20;21.60;;;15.23;;
2257;SDS011;1136;51.574;7.706;2023-02-15T00:16:48;20.53;;;16.50;;
2257;SDS011;1136;51.574;7.706;2023-02-15T00:19:17;18.87;;;15.30;;
2257;SDS011;1136;51.574;7.706;2023-02-15T00:21:44;24.37;;;15.10;;
2257;SDS011;1136;51.574;7.706;2023-02-15T00:24:13;16.70;;;14.13;;
2257;SDS011;1136;51.574;7.706;2023-02-15T00:26:41;16.83;;;13.97;;
2257;SDS011;1136;51.574;7.706;2023-02-15T00:29:09;19.50;;;14.93;;
2257;SDS011;1136;51.574;7.706;2023-02-15T00:31:37;25.87;;;15.37;;
2257;SDS011;1136;51.574;7.706;2023-02-15T00:34:05;20.47;;;16.37;;
2257;SDS011;1136;51.574;7.706;2023-02-15T00:36:33;20.77;;;15.00;;
2257;SDS011;1136;51.574;7.706;2023-02-15T00:39:00;19.10;;;14.20;;
2257;SDS011;1136;51.574;7.706;2023-02-15T00:41:27;19.13;;;15.43;;
2257;SDS011;1136;51.574;7.706;2023-02-15T00:43:53;20.70;;;15.80;;
2257;SDS011;1136;51.574;7.706;2023-02-15T00:46:20;21.93;;;15.57;;
2257;SDS011;1136;51.574;7.706;2023-02-15T00:48:47;24.33;;;15.97;;
2257;SDS011;1136;51.574;7.706;2023-02-15T00:51:13;21.60;;;14.67;;
2257;SDS011;1136;51.574;7.706;2023-02-15T00:53:40;19.27;;;15.40;;
2257;SDS011;1136;51.574;7.706;2023-02-15T00:56:07;20.97;;;13.20;;
2257;SDS011;1136;51.574;7.706;2023-02-15T00:58:34;19.27;;;14.60;;
2257;SDS011;1136;51.574;7.706;2023-02-15T01:01:04;20.57;;;14.20;;
2257;SDS011;1136;51.574;7.706;2023-02-15T01:03:33;16.80;;;14.30;;
2257;SDS011;1136;51.574;7.706;2023-02-15T01:06:00;17.40;;;13.40;;
2257;SDS011;1136;51.574;7.706;2023-02-15T01:08:28;22.93;;;15.07;;
2257;SDS011;1136;51.574;7.706;2023-02-15T01:10:54;20.73;;;14.20;;
2257;SDS011;1136;51.574;7.706;2023-02-15T01:13:21;20.80;;;13.80;;
2257;SDS011;1136;51.574;7.706;2023-02-15T01:15:52;17.40;;;13.90;;
2257;SDS011;1136;51.574;7.706;2023-02-15T01:18:21;18.70;;;14.57;;
2257;SDS011;1136;51.574;7.706;2023-02-15T01:20:48;19.77;;;14.20;;
2257;SDS011;1136;51.574;7.706;2023-02-15T01:23:15;19.73;;;13.23;;
2257;SDS011;1136;51.574;7.706;2023-02-15T01:25:42;19.50;;;14.50;;
2257;SDS011;1136;51.574;7.706;2023-02-15T01:28:11;22.40;;;13.93;;
2257;SDS011;1136;51.574;7.706;2023-02-15T01:30:37;16.23;;;13.67;;
2257;SDS011;1136;51.574;7.706;2023-02-15T01:33:04;18.83;;;14.47;;
2257;SDS011;1136;51.574;7.706;2023-02-15T01:35:31;16.43;;;13.40;;
2257;SDS011;1136;51.574;7.706;2023-02-15T01:37:58;19.57;;;14.43;;
2257;SDS011;1136;51.574;7.706;2023-02-15T01:40:25;15.93;;;13.30;;
2257;SDS011;1136;51.574;7.706;2023-02-15T01:42:52;17.60;;;13.67;;
2257;SDS011;1136;51.574;7.706;2023-02-15T01:47:56;16.67;;;12.43;;
2257;SDS011;1136;51.574;7.706;2023-02-15T01:52:58;17.67;;;13.77;;
2257;SDS011;1136;51.574;7.706;2023-02-15T01:55:32;18.13;;;12.73;;
2257;SDS011;1136;51.574;7.706;2023-02-15T01:58:00;16.23;;;13.37;;
2257;SDS011;1136;51.574;7.706;2023-02-15T02:00:27;21.73;;;13.63;;
2257;SDS011;1136;51.574;7.706;2023-02-15T02:02:55;15.50;;;12.50;;
2257;SDS011;1136;51.574;7.706;2023-02-15T02:05:23;16.40;;;13.27;;
2257;SDS011;1136;51.574;7.706;2023-02-15T02:07:51;16.50;;;12.77;;
2257;SDS011;1136;51.574;7.706;2023-02-15T02:10:21;16.00;;;13.27;;
2257;SDS011;1136;51.574;7.706;2023-02-15T02:12:50;14.60;;;12.47;;
2257;SDS011;1136;51.574;7.706;2023-02-15T02:15:20;18.23;;;12.70;;
2257;SDS011;1136;51.574;7.706;2023-02-15T02:24:02;14.20;;;12.17;;
2257;SDS011;1136;51.574;7.706;2023-02-15T02:29:47;16.50;;;13.40;;
2257;SDS011;1136;51.574;7.706;2023-02-15T02:35:19;17.13;;;12.20;;
2257;SDS011;1136;51.574;7.706;2023-02-15T02:38:05;20.90;;;14.03;;
2257;SDS011;1136;51.574;7.706;2023-02-15T02:45:53;15.47;;;12.70;;
2257;SDS011;1136;51.574;7.706;2023-02-15T02:48:24;17.80;;;13.83;;
2257;SDS011;1136;51.574;7.706;2023-02-15T02:50:53;18.67;;;13.20;;
2257;SDS011;1136;51.574;7.706;2023-02-15T02:53:19;15.50;;;12.80;;
2257;SDS011;1136;51.574;7.706;2023-02-15T02:55:56;16.17;;;12.90;;
2257;SDS011;1136;51.574;7.706;2023-02-15T03:03:33;14.57;;;12.53;;
2257;SDS011;1136;51.574;7.706;2023-02-15T03:06:08;19.00;;;13.20;;
2257;SDS011;1136;51.574;7.706;2023-02-15T03:08:51;20.53;;;13.57;;
2257;SDS011;1136;51.574;7.706;2023-02-15T03:11:21;19.60;;;14.10;;
2257;SDS011;1136;51.574;7.706;2023-02-15T03:13:48;18.53;;;12.27;;
2257;SDS011;1136;51.574;7.706;2023-02-15T03:16:15;18.53;;;13.10;;
2257;SDS011;1136;51.574;7.706;2023-02-15T03:18:58;19.83;;;13.30;;
2257;SDS011;1136;51.574;7.706;2023-02-15T03:21:50;16.63;;;13.60;;
2257;SDS011;1136;51.574;7.706;2023-02-15T03:24:24;18.87;;;13.13;;
2257;SDS011;1136;51.574;7.706;2023-02-15T03:26:54;15.43;;;11.90;;
2257;SDS011;1136;51.574;7.706;2023-02-15T03:29:23;17.00;;;12.00;;
2257;SDS011;1136;51.574;7.706;2023-02-15T03:31:53;18.60;;;14.00;;
2257;SDS011;1136;51.574;7.706;2023-02-15T03:34:22;20.30;;;12.93;;
2257;SDS011;1136;51.574;7.706;2023-02-15T03:39:34;14.60;;;12.10;;
2257;SDS011;1136;51.574;7.706;2023-02-15T03:42:09;16.80;;;12.37;;
2257;SDS011;1136;51.574;7.706;2023-02-15T03:44:49;15.00;;;11.40;;
2257;SDS011;1136;51.574;7.706;2023-02-15T03:47:20;19.73;;;12.40;;
2257;SDS011;1136;51.574;7.706;2023-02-15T03:49:59;15.63;;;12.37;;
2257;SDS011;1136;51.574;7.706;2023-02-15T03:52:29;16.70;;;12.60;;
2257;SDS011;1136;51.574;7.706;2023-02-15T03:54:57;16.87;;;11.70;;
2257;SDS011;1136;51.574;7.706;2023-02-15T03:57:25;17.90;;;12.43;;
2257;SDS011;1136;51.574;7.706;2023-02-15T04:00:13;17.10;;;12.60;;
2257;SDS011;1136;51.574;7.706;2023-02-15T04:05:46;23.20;;;13.00;;
2257;SDS011;1136;51.574;7.706;2023-02-15T04:08:13;18.20;;;13.60;;
2257;SDS011;1136;51.574;7.706;2023-02-15T04:10:39;15.63;;;11.70;;
2257;SDS011;1136;51.574;7.706;2023-02-15T04:13:29;24.40;;;13.80;;
2257;SDS011;1136;51.574;7.706;2023-02-15T04:15:57;24.70;;;13.30;;
2257;SDS011;1136;51.574;7.706;2023-02-15T04:18:32;16.03;;;12.03;;
2257;SDS011;1136;51.574;7.706;2023-02-15T04:21:25;17.50;;;12.10;;
2257;SDS011;1136;51.574;7.706;2023-02-15T04:24:13;21.00;;;12.50;;
2257;SDS011;1136;51.574;7.706;2023-02-15T04:26:58;14.63;;;12.50;;
2257;SDS011;1136;51.574;7.706;2023-02-15T04:29:26;18.13;;;13.57;;
2257;SDS011;1136;51.574;7.706;2023-02-15T04:31:54;18.13;;;13.67;;
2257;SDS011;1136;51.574;7.706;2023-02-15T04:34:21;21.30;;;14.63;;
2257;SDS011;1136;51.574;7.706;2023-02-15T04:36:48;19.60;;;13.10;;
2257;SDS011;1136;51.574;7.706;2023-02-15T04:39:16;17.73;;;13.60;;
2257;SDS011;1136;51.574;7.706;2023-02-15T04:41:44;19.10;;;14.90;;
2257;SDS011;1136;51.574;7.706;2023-02-15T04:44:11;15.50;;;13.50;;
2257;SDS011;1136;51.574;7.706;2023-02-15T04:46:37;20.00;;;13.30;;
2257;SDS011;1136;51.574;7.706;2023-02-15T04:49:04;18.03;;;13.27;;
2257;SDS011;1136;51.574;7.706;2023-02-15T04:51:30;18.40;;;13.63;;
2257;SDS011;1136;51.574;7.706;2023-02-15T04:53:57;19.83;;;14.10;;
2257;SDS011;1136;51.574;7.706;2023-02-15T04:56:24;19.37;;;14.47;;
2257;SDS011;1136;51.574;7.706;2023-02-15T04:58:50;23.80;;;13.20;;
2257;SDS011;1136;51.574;7.706;2023-02-15T05:01:17;17.33;;;13.43;;
2257;SDS011;1136;51.574;7.706;2023-02-15T05:03:45;19.63;;;14.03;;
2257;SDS011;1136;51.574;7.706;2023-02-15T05:06:11;18.83;;;13.47;;
2257;SDS011;1136;51.574;7.706;2023-02-15T05:08:38;19.50;;;13.10;;
2257;SDS011;1136;51.574;7.706;2023-02-15T05:11:05;20.67;;;13.70;;
2257;SDS011;1136;51.574;7.706;2023-02-15T05:13:32;18.63;;;14.23;;
2257;SDS011;1136;51.574;7.706;2023-02-15T05:15:59;19.30;;;14.30;;
2257;SDS011;1136;51.574;7.706;2023-02-15T05:18:26;19.93;;;14.40;;
2257;SDS011;1136;51.574;7.706;2023-02-15T05:20:53;20.70;;;13.30;;
2257;SDS011;1136;51.574;7.706;2023-02-15T05:23:20;19.53;;;13.80;;
2257;SDS011;1136;51.574;7.706;2023-02-15T05:25:47;19.13;;;13.50;;
2257;SDS011;1136;51.574;7.706;2023-02-15T05:28:33;24.63;;;15.90;;
2257;SDS011;1136;51.574;7.706;2023-02-15T05:33:31;21.40;;;16.43;;
2257;SDS011;1136;51.574;7.706;2023-02-15T05:35:58;22.63;;;16.03;;
2257;SDS011;1136;51.574;7.706;2023-02-15T05:38:29;22.83;;;14.73;;
2257;SDS011;1136;51.574;7.706;2023-02-15T05:40:56;20.60;;;14.27;;
2257;SDS011;1136;51.574;7.706;2023-02-15T05:43:24;22.07;;;15.13;;
2257;SDS011;1136;51.574;7.706;2023-02-15T05:45:53;19.97;;;15.20;;
2257;SDS011;1136;51.574;7.706;2023-02-15T05:48:21;20.60;;;15.27;;
2257;SDS011;1136;51.574;7.706;2023-02-15T05:51:03;24.80;;;16.97;;
2257;SDS011;1136;51.574;7.706;2023-02-15T05:53:30;24.33;;;16.13;;
2257;SDS011;1136;51.574;7.706;2023-02-15T05:55:58;21.77;;;16.67;;
2257;SDS011;1136;51.574;7.706;2023-02-15T05:58:27;20.93;;;16.77;;
2257;SDS011;1136;51.574;7.706;2023-02-15T06:00:59;24.30;;;16.03;;
2257;SDS011;1136;51.574;7.706;2023-02-15T06:03:25;25.37;;;17.50;;
2257;SDS011;1136;51.574;7.706;2023-02-15T06:05:54;23.80;;;17.27;;
2257;SDS011;1136;51.574;7.706;2023-02-15T06:08:21;22.10;;;17.00;;
2257;SDS011;1136;51.574;7.706;2023-02-15T06:10:47;28.93;;;16.20;;
2257;SDS011;1136;51.574;7.706;2023-02-15T06:13:14;29.60;;;19.70;;
2257;SDS011;1136;51.574;7.706;2023-02-15T06:15:41;26.80;;;18.20;;
2257;SDS011;1136;51.574;7.706;2023-02-15T06:18:07;22.80;;;15.27;;
2257;SDS011;1136;51.574;7.706;2023-02-15T06:20:34;22.20;;;17.20;;
2257;SDS011;1136;51.574;7.706;2023-02-15T06:23:00;24.53;;;16.80;;
2257;SDS011;1136;51.574;7.706;2023-02-15T06:25:27;25.13;;;18.00;;
2257;SDS011;1136;51.574;7.706;2023-02-15T06:27:55;23.80;;;17.00;;
2257;SDS011;1136;51.574;7.706;2023-02-15T06:30:21;21.77;;;16.80;;
2257;SDS011;1136;51.574;7.706;2023-02-15T06:32:48;27.80;;;18.30;;
2257;SDS011;1136;51.574;7.706;2023-02-15T06:35:15;23.70;;;17.77;;
2257;SDS011;1136;51.574;7.706;2023-02-15T06:37:41;29.10;;;18.30;;
2257;SDS011;1136;51.574;7.706;2023-02-15T06:40:08;26.50;;;19.07;;
2257;SDS011;1136;51.574;7.706;2023-02-15T06:42:35;24.47;;;19.00;;
2257;SDS011;1136;51.574;7.706;2023-02-15T06:45:02;26.10;;;19.23;;
2257;SDS011;1136;51.574;7.706;2023-02-15T06:47:29;30.07;;;21.03;;
2257;SDS011;1136;51.574;7.706;2023-02-15T06:49:56;30.87;;;20.07;;
2257;SDS011;1136;51.574;7.706;2023-02-15T06:52:23;34.90;;;20.07;;
2257;SDS011;1136;51.574;7.706;2023-02-15T06:54:50;27.40;;;18.70;;
2257;SDS011;1136;51.574;7.706;2023-02-15T06:57:17;27.47;;;20.13;;
2257;SDS011;1136;51.574;7.706;2023-02-15T06:59:43;29.27;;;19.10;;
2257;SDS011;1136;51.574;7.706;2023-02-15T07:02:13;30.00;;;18.57;;
2257;SDS011;1136;51.574;7.706;2023-02-15T07:04:40;29.60;;;18.30;;
2257;SDS011;1136;51.574;7.706;2023-02-15T07:07:10;29.50;;;19.53;;
2257;SDS011;1136;51.574;7.706;2023-02-15T07:09:38;28.57;;;18.77;;
2257;SDS011;1136;51.574;7.706;2023-02-15T07:12:04;28.07;;;19.37;;
2257;SDS011;1136;51.574;7.706;2023-02-15T07:14:49;30.17;;;18.00;;
2257;SDS011;1136;51.574;7.706;2023-02-15T07:17:16;28.43;;;19.60;;
2257;SDS011;1136;51.574;7.706;2023-02-15T07:20:02;29.43;;;19.03;;
2257;SDS011;1136;51.574;7.706;2023-02-15T07:22:36;29.93;;;19.13;;
2257;SDS011;1136;51.574;7.706;2023-02-15T07:25:03;31.70;;;17.97;;
2257;SDS011;1136;51.574;7.706;2023-02-15T07:27:31;31.23;;;19.67;;
2257;SDS011;1136;51.574;7.706;2023-02-15T07:29:58;35.90;;;21.10;;
2257;SDS011;1136;51.574;7.706;2023-02-15T07:32:29;30.43;;;18.97;;
2257;SDS011;1136;51.574;7.706;2023-02-15T07:34:57;30.93;;;20.00;;
2257;SDS011;1136;51.574;7.706;2023-02-15T07:37:25;29.73;;;19.93;;
2257;SDS011;1136;51.574;7.706;2023-02-15T07:39:52;28.07;;;18.83;;
2257;SDS011;1136;51.574;7.706;2023-02-15T07:42:19;31.03;;;21.30;;
2257;SDS011;1136;51.574;7.706;2023-02-15T07:44:47;32.40;;;21.20;;
2257;SDS011;1136;51.574;7.706;2023-02-15T07:47:14;31.50;;;20.80;;
2257;SDS011;1136;51.574;7.706;2023-02-15T07:49:40;31.40;;;20.40;;
2257;SDS011;1136;51.574;7.706;2023-02-15T07:52:08;30.97;;;20.87;;
2257;SDS011;1136;51.574;7.706;2023-02-15T07:54:34;29.50;;;19.43;;
2257;SDS011;1136;51.574;7.706;2023-02-15T07:57:01;31.43;;;21.20;;
2257;SDS011;1136;51.574;7.706;2023-02-15T07:59:28;27.13;;;20.27;;
2257;SDS011;1136;51.574;7.706;2023-02-15T08:01:54;32.17;;;19.83;;
2257;SDS011;1136;51.574;7.706;2023-02-15T08:04:23;29.37;;;22.63;;
2257;SDS011;1136;51.574;7.706;2023-02-15T08:06:51;47.10;;;24.13;;
2257;SDS011;1136;51.574;7.706;2023-02-15T08:09:19;47.03;;;27.23;;
2257;SDS011;1136;51.574;7.706;2023-02-15T08:11:46;40.33;;;25.40;;
2257;SDS011;1136;51.574;7.706;2023-02-15T08:14:14;40.13;;;27.77;;
2257;SDS011;1136;51.574;7.706;2023-02-15T08:16:43;37.50;;;24.37;;
2257;SDS011;1136;51.574;7.706;2023-02-15T08:22:06;32.60;;;21.23;;
2257;SDS011;1136;51.574;7.706;2023-02-15T08:24:34;32.10;;;20.80;;
2257;SDS011;1136;51.574;7.706;2023-02-15T08:27:03;31.60;;;21.47;;
2257;SDS011;1136;51.574;7.706;2023-02-15T08:29:32;27.70;;;18.80;;
2257;SDS011;1136;51.574;7.706;2023-02-15T08:32:01;28.53;;;18.80;;
2257;SDS011;1136;51.574;7.706;2023-02-15T08:34:30;28.77;;;21.17;;
2257;SDS011;1136;51.574;7.706;2023-02-15T08:36:58;23.80;;;17.90;;
2257;SDS011;1136;51.574;7.706;2023-02-15T08:39:25;29.97;;;21.07;;
2257;SDS011;1136;51.574;7.706;2023-02-15T08:41:52;26.40;;;19.13;;
2257;SDS011;1136;51.574;7.706;2023-02-15T08:44:19;28.23;;;18.57;;
2257;SDS011;1136;51.574;7.706;2023-02-15T08:46:47;27.97;;;19.87;;
2257;SDS011;1136;51.574;7.706;2023-02-15T08:49:15;25.70;;;19.70;;
2257;SDS011;1136;51.574;7.706;2023-02-15T08:51:44;31.30;;;19.37;;
2257;SDS011;1136;51.574;7.706;2023-02-15T08:54:15;26.87;;;18.30;;
2257;SDS011;1136;51.574;7.706;2023-02-15T08:56:44;27.97;;;19.83;;
2257;SDS011;1136;51.574;7.706;2023-02-15T08:59:12;27.50;;;19.77;;
2257;SDS011;1136;51.574;7.706;2023-02-15T09:01:47;28.23;;;17.30;;
2257;SDS011;1136;51.574;7.706;2023-02-15T09:04:15;23.23;;;18.33;;
2257;SDS011;1136;51.574;7.706;2023-02-15T09:06:43;23.97;;;19.17;;
2257;SDS011;1136;51.574;7.706;2023-02-15T09:09:13;22.73;;;17.27;;
2257;SDS011;1136;51.574;7.706;2023-02-15T09:11:42;26.10;;;18.00;;
2257;SDS011;1136;51.574;7.706;2023-02-15T09:14:13;24.60;;;17.33;;
2257;SDS011;1136;51.574;7.706;2023-02-15T09:16:42;23.17;;;18.70;;
2257;SDS011;1136;51.574;7.706;2023-02-15T09:19:15;22.27;;;17.47;;
2257;SDS011;1136;51.574;7.706;2023-02-15T09:21:43;22.23;;;15.73;;
2257;SDS011;1136;51.574;7.706;2023-02-15T09:24:11;22.10;;;17.10;;
2257;SDS011;1136;51.574;7.706;2023-02-15T09:26:41;24.10;;;18.23;;
2257;SDS011;1136;51.574;7.706;2023-02-15T09:29:12;24.93;;;18.00;;
2257;SDS011;1136;51.574;7.706;2023-02-15T09:31:49;24.40;;;17.63;;
2257;SDS011;1136;51.574;7.706;2023-02-15T09:34:17;20.57;;;16.83;;
2257;SDS011;1136;51.574;7.706;2023-02-15T09:36:45;22.20;;;17.60;;
2257;SDS011;1136;51.574;7.706;2023-02-15T09:39:20;21.80;;;18.23;;
2257;SDS011;1136;51.574;7.706;2023-02-15T10:05:38;18.33;;;16.43;;
2257;SDS011;1136;51.574;7.706;2023-02-15T10:27:11;19.07;;;17.27;;
2257;SDS011;1136;51.574;7.706;2023-02-15T10:29:42;21.03;;;18.83;;
2257;SDS011;1136;51.574;7.706;2023-02-15T10:32:22;27.43;;;19.77;;
2257;SDS011;1136;51.574;7.706;2023-02-15T10:34:51;20.57;;;18.60;;
2257;SDS011;1136;51.574;7.706;2023-02-15T10:50:57;18.60;;;16.80;;
2257;SDS011;1136;51.574;7.706;2023-02-15T10:56:36;18.07;;;16.13;;
2257;SDS011;1136;51.574;7.706;2023-02-15T11:07:15;15.70;;;14.10;;
2257;SDS011;1136;51.574;7.706;2023-02-15T11:09:45;16.63;;;14.80;;
2257;SDS011;1136;51.574;7.706;2023-02-15T11:12:16;17.17;;;15.47;;
2257;SDS011;1136;51.574;7.706;2023-02-15T11:14:49;17.67;;;15.80;;
2257;SDS011;1136;51.574;7.706;2023-02-15T11:17:28;16.40;;;14.90;;
2257;SDS011;1136;51.574;7.706;2023-02-15T11:20:14;16.00;;;14.40;;
2257;SDS011;1136;51.574;7.706;2023-02-15T11:22:46;15.60;;;14.10;;
2257;SDS011;1136;51.574;7.706;2023-02-15T11:25:17;16.37;;;14.97;;
2257;SDS011;1136;51.574;7.706;2023-02-15T11:27:45;15.87;;;14.27;;
2257;SDS011;1136;51.574;7.706;2023-02-15T11:30:13;13.27;;;11.97;;
2257;SDS011;1136;51.574;7.706;2023-02-15T11:32:43;14.50;;;13.17;;
2257;SDS011;1136;51.574;7.706;2023-02-15T11:37:46;14.33;;;12.93;;
2257;SDS011;1136;51.574;7.706;2023-02-15T11:43:16;14.27;;;11.70;;
2257;SDS011;1136;51.574;7.706;2023-02-15T11:45:57;14.43;;;12.20;;
2257;SDS011;1136;51.574;7.706;2023-02-15T11:48:24;13.23;;;11.93;;
2257;SDS011;1136;51.574;7.706;2023-02-15T11:50:51;14.80;;;13.37;;
2257;SDS011;1136;51.574;7.706;2023-02-15T11:53:18;13.97;;;12.63;;
2257;SDS011;1136;51.574;7.706;2023-02-15T11:55:48;14.40;;;12.90;;
2257;SDS011;1136;51.574;7.706;2023-02-15T12:00:56;13.23;;;12.03;;
2257;SDS011;1136;51.574;7.706;2023-02-15T12:03:39;15.40;;;13.70;;
2257;SDS011;1136;51.574;7.706;2023-02-15T12:11:37;14.17;;;12.57;;
2257;SDS011;1136;51.574;7.706;2023-02-15T12:14:07;13.27;;;11.90;;
2257;SDS011;1136;51.574;7.706;2023-02-15T12:21:55;11.90;;;10.60;;
2257;SDS011;1136;51.574;7.706;2023-02-15T12:27:03;11.47;;;10.27;;
2257;SDS011;1136;51.574;7.706;2023-02-15T12:29:31;13.57;;;10.57;;
2257;SDS011;1136;51.574;7.706;2023-02-15T12:32:25;11.73;;;10.50;;
2257;SDS011;1136;51.574;7.706;2023-02-15T12:34:55;11.47;;;10.13;;
2257;SDS011;1136;51.574;7.706;2023-02-15T12:37:28;12.97;;;11.17;;
2257;SDS011;1136;51.574;7.706;2023-02-15T12:39:59;10.87;;;9.80;;
2257;SDS011;1136;51.574;7.706;2023-02-15T12:42:27;14.60;;;11.80;;
2257;SDS011;1136;51.574;7.706;2023-02-15T12:45:03;15.60;;;10.20;;
2257;SDS011;1136;51.574;7.706;2023-02-15T12:47:31;11.20;;;10.00;;
2257;SDS011;1136;51.574;7.706;2023-02-15T12:50:06;14.13;;;11.00;;
2257;SDS011;1136;51.574;7.706;2023-02-15T12:52:47;12.10;;;10.10;;
2257;SDS011;1136;51.574;7.706;2023-02-15T12:58:06;13.33;;;10.80;;
2257;SDS011;1136;51.574;7.706;2023-02-15T13:00:34;13.33;;;9.60;;
2257;SDS011;1136;51.574;7.706;2023-02-15T13:03:01;16.20;;;11.23;;
2257;SDS011;1136;51.574;7.706;2023-02-15T13:05:40;11.90;;;10.43;;
2257;SDS011;1136;51.574;7.706;2023-02-15T13:10:39;14.43;;;11.60;;
2257;SDS011;1136;51.574;7.706;2023-02-15T13:13:11;15.63;;;10.23;;
2257;SDS011;1136;51.574;7.706;2023-02-15T13:15:44;13.90;;;10.87;;
2257;SDS011;1136;51.574;7.706;2023-02-15T13:18:18;14.63;;;11.23;;
2257;SDS011;1136;51.574;7.706;2023-02-15T13:20:48;15.80;;;10.40;;
2257;SDS011;1136;51.574;7.706;2023-02-15T13:23:22;10.80;;;9.30;;
2257;SDS011;1136;51.574;7.706;2023-02-15T13:25:54;13.40;;;9.53;;
2257;SDS011;1136;51.574;7.706;2023-02-15T13:28:23;10.63;;;9.40;;
2257;SDS011;1136;51.574;7.706;2023-02-15T13:30:53;12.40;;;9.33;;
2257;SDS011;1136;51.574;7.706;2023-02-15T13:33:28;12.20;;;9.80;;
2257;SDS011;1136;51.574;7.706;2023-02-15T13:38:52;11.93;;;9.20;;
2257;SDS011;1136;51.574;7.706;2023-02-15T13:41:23;14.90;;;8.50;;
2257;SDS011;1136;51.574;7.706;2023-02-15T13:43:57;13.13;;;10.23;;
2257;SDS011;1136;51.574;7.706;2023-02-15T13:52:04;13.07;;;10.50;;
2257;SDS011;1136;51.574;7.706;2023-02-15T13:57:47;14.43;;;10.23;;
2257;SDS011;1136;51.574;7.706;2023-02-15T14:00:34;10.90;;;8.77;;
2257;SDS011;1136;51.574;7.706;2023-02-15T14:03:45;13.03;;;8.50;;
2257;SDS011;1136;51.574;7.706;2023-02-15T14:08:49;11.03;;;8.93;;
2257;SDS011;1136;51.574;7.706;2023-02-15T14:17:03;8.57;;;7.20;;
2257;SDS011;1136;51.574;7.706;2023-02-15T14:19:43;11.17;;;7.57;;
2257;SDS011;1136;51.574;7.706;2023-02-15T14:27:46;12.60;;;8.43;;
2257;SDS011;1136;51.574;7.706;2023-02-15T14:30:46;10.73;;;8.00;;
2257;SDS011;1136;51.574;7.706;2023-02-15T14:35:40;9.53;;;7.87;;
2257;SDS011;1136;51.574;7.706;2023-02-15T14:38:18;26.93;;;8.67;;
2257;SDS011;1136;51.574;7.706;2023-02-15T14:43:37;13.83;;;8.73;;
2257;SDS011;1136;51.574;7.706;2023-02-15T14:49:17;11.40;;;8.00;;
2257;SDS011;1136;51.574;7.706;2023-02-15T14:56:45;13.87;;;8.07;;
2257;SDS011;1136;51.574;7.706;2023-02-15T14:59:14;11.10;;;7.83;;
2257;SDS011;1136;51.574;7.706;2023-02-15T15:01:50;9.60;;;7.73;;
2257;SDS011;1136;51.574;7.706;2023-02-15T15:04:26;11.77;;;8.03;;
2257;SDS011;1136;51.574;7.706;2023-02-15T15:06:59;10.20;;;7.63;;
2257;SDS011;1136;51.574;7.706;2023-02-15T15:09:29;14.00;;;8.30;;
2257;SDS011;1136;51.574;7.706;2023-02-15T15:14:52;11.73;;;7.90;;
2257;SDS011;1136;51.574;7.706;2023-02-15T15:20:11;12.30;;;7.83;;
2257;SDS011;1136;51.574;7.706;2023-02-15T15:22:40;14.90;;;7.63;;
2257;SDS011;1136;51.574;7.706;2023-02-15T15:25:12;10.97;;;7.30;;
2257;SDS011;1136;51.574;7.706;2023-02-15T15:31:00;9.97;;;8.80;;
2257;SDS011;1136;51.574;7.706;2023-02-15T15:50:43;12.50;;;8.47;;
2257;SDS011;1136;51.574;7.706;2023-02-15T15:53:16;9.53;;;7.30;;
2257;SDS011;1136;51.574;7.706;2023-02-15T15:55:46;12.57;;;7.77;;
2257;SDS011;1136;51.574;7.706;2023-02-15T15:58:13;7.60;;;6.87;;
2257;SDS011;1136;51.574;7.706;2023-02-15T16:00:44;10.40;;;8.23;;
2257;SDS011;1136;51.574;7.706;2023-02-15T16:03:14;12.73;;;9.10;;
2257;SDS011;1136;51.574;7.706;2023-02-15T16:05:42;9.80;;;7.90;;
2257;SDS011;1136;51.574;7.706;2023-02-15T16:08:09;9.50;;;7.30;;
2257;SDS011;1136;51.574;7.706;2023-02-15T16:10:36;10.57;;;7.73;;
2257;SDS011;1136;51.574;7.706;2023-02-15T16:13:04;9.23;;;6.90;;
2257;SDS011;1136;51.574;7.706;2023-02-15T16:15:36;10.80;;;8.03;;
2257;SDS011;1136;51.574;7.706;2023-02-15T16:18:14;10.13;;;7.43;;
2257;SDS011;1136;51.574;7.706;2023-02-15T16:20:53;16.33;;;7.93;;
2257;SDS011;1136;51.574;7.706;2023-02-15T16:23:39;10.57;;;7.60;;
2257;SDS011;1136;51.574;7.706;2023-02-15T16:29:16;12.47;;;9.20;;
2257;SDS011;1136;51.574;7.706;2023-02-15T16:31:56;10.30;;;7.93;;
2257;SDS011;1136;51.574;7.706;2023-02-15T16:34:29;12.23;;;6.70;;
2257;SDS011;1136;51.574;7.706;2023-02-15T16:37:17;12.07;;;7.40;;
2257;SDS011;1136;51.574;7.706;2023-02-15T16:39:45;20.97;;;11.97;;
2257;SDS011;1136;51.574;7.706;2023-02-15T16:42:14;12.43;;;9.33;;
2257;SDS011;1136;51.574;7.706;2023-02-15T16:44:43;11.03;;;8.80;;
2257;SDS011;1136;51.574;7.706;2023-02-15T16:47:16;12.53;;;9.43;;
2257;SDS011;1136;51.574;7.706;2023-02-15T16:49:46;14.43;;;10.20;;
2257;SDS011;1136;51.574;7.706;2023-02-15T16:52:22;14.50;;;9.57;;
2257;SDS011;1136;51.574;7.706;2023-02-15T16:54:52;16.30;;;10.50;;
2257;SDS011;1136;51.574;7.706;2023-02-15T16:57:22;16.37;;;12.80;;
2257;SDS011;1136;51.574;7.706;2023-02-15T16:59:52;27.47;;;19.87;;
2257;SDS011;1136;51.574;7.706;2023-02-15T17:02:30;28.43;;;14.03;;
2257;SDS011;1136;51.574;7.706;2023-02-15T17:05:18;22.13;;;13.30;;
2257;SDS011;1136;51.574;7.706;2023-02-15T17:10:34;29.13;;;19.00;;
2257;SDS011;1136;51.574;7.706;2023-02-15T17:13:10;28.47;;;20.03;;
2257;SDS011;1136;51.574;7.706;2023-02-15T17:18:15;25.77;;;17.50;;
2257;SDS011;1136;51.574;7.706;2023-02-15T17:20:44;17.37;;;12.90;;
2257;SDS011;1136;51.574;7.706;2023-02-15T17:23:31;17.30;;;13.47;;
2257;SDS011;1136;51.574;7.706;2023-02-15T17:26:00;14.83;;;11.80;;
2257;SDS011;1136;51.574;7.706;2023-02-15T17:28:29;19.80;;;12.00;;
2257;SDS011;1136;51.574;7.706;2023-02-15T17:30:57;16.90;;;12.63;;
2257;SDS011;1136;51.574;7.706;2023-02-15T17:33:48;20.57;;;16.77;;
2257;SDS011;1136;51.574;7.706;2023-02-15T17:36:12;22.63;;;15.20;;
2257;SDS011;1136;51.574;7.706;2023-02-15T17:41:24;16.00;;;12.77;;
2257;SDS011;1136;51.574;7.706;2023-02-15T17:43:57;18.30;;;12.87;;
2257;SDS011;1136;51.574;7.706;2023-02-15T17:46:24;25.17;;;16.33;;
2257;SDS011;1136;51.574;7.706;2023-02-15T17:48:53;25.20;;;18.37;;
2257;SDS011;1136;51.574;7.706;2023-02-15T17:51:21;28.83;;;20.13;;
2257;SDS011;1136;51.574;7.706;2023-02-15T17:53:48;37.57;;;24.47;;
2257;SDS011;1136;51.574;7.706;2023-02-15T17:56:34;32.97;;;21.07;;
2257;SDS011;1136;51.574;7.706;2023-02-15T17:59:02;22.10;;;15.73;;
2257;SDS011;1136;51.574;7.706;2023-02-15T18:01:36;23.00;;;14.97;;
2257;SDS011;1136;51.574;7.706;2023-02-15T18:04:23;18.73;;;13.50;;
2257;SDS011;1136;51.574;7.706;2023-02-15T18:07:09;25.20;;;14.00;;
2257;SDS011;1136;51.574;7.706;2023-02-15T18:09:55;20.90;;;13.73;;
2257;SDS011;1136;51.574;7.706;2023-02-15T18:12:41;16.93;;;12.50;;
2257;SDS011;1136;51.574;7.706;2023-02-15T18:15:07;18.60;;;12.47;;
2257;SDS011;1136;51.574;7.706;2023-02-15T18:17:38;20.63;;;13.10;;
2257;SDS011;1136;51.574;7.706;2023-02-15T18:20:14;26.93;;;13.27;;
2257;SDS011;1136;51.574;7.706;2023-02-15T18:22:43;18.57;;;13.43;;
2257;SDS011;1136;51.574;7.706;2023-02-15T18:25:15;21.30;;;13.60;;
2257;SDS011;1136;51.574;7.706;2023-02-15T18:27:43;17.43;;;12.20;;
2257;SDS011;1136;51.574;7.706;2023-02-15T18:30:28;18.70;;;12.33;;
2257;SDS011;1136;51.574;7.706;2023-02-15T18:32:56;21.87;;;12.70;;
2257;SDS011;1136;51.574;7.706;2023-02-15T18:35:24;22.07;;;14.70;;
2257;SDS011;1136;51.574;7.706;2023-02-15T18:37:52;21.70;;;14.20;;
2257;SDS011;1136;51.574;7.706;2023-02-15T18:40:20;21.93;;;13.83;;
2257;SDS011;1136;51.574;7.706;2023-02-15T18:42:48;18.23;;;13.03;;